Le Roy, Michigan
Current Conditions -  °F | °C
As of 10:54 AM on Friday 24 Oct 2014 (Local Time) from KCAD Reporting Station
Haze Haze  
Wind Chill: 48°   Ceiling: 500
Heat Index: 48°   Visibility: 2.5mi
Dew Point: 47°   Wind: 0mph
Humidity: 97%   Direction: NA
Pressure: 30.02"   Gusts: NA
Location:  44.0236°N, 85.4348°W
Report Text: KCAD 241454Z AUTO 00000KT 2 1/2SM BR OVC005 08/08 A3002 RMK AO2 T00900086
Loading
Personal Weather Stations






























Interactive Weather Map New forecast layout! Learn more

10-Day Weather Forecast

Advertisements
Track Severe Weather on mobile